Accueil
METAR-TAF:

METAR-TAF

Aéroports :

Cape Romanzof, Alaska, États-Unis

latitude: 61-47N, longitude: 166-02W, altitude: 139 m

Observation

Le bulletin a été fait il y a 41 minutes, à 21:55 UTC
Vent 2 kt de direction variable
Température -11°C
Humidité 78%
Pression 1009 hPa
Visibilité: 16.1 km
Nuages fragmentés à une hauteur de 6000 ft

METAR: PACZ 222155Z AUTO VRB02KT 10SM BKN060 M11/M14 A2979 RMK AO2 SLP102 T11111143

Heure: 13:36 (22:36 UTC)


TAF: absent

Observations et prévisions météorologiques de plus de 4000 aéroports (messages METAR et TAF).

Les stations disponibles sont représentées par des disques jaunes et rouges sur la carte.

Passer la souris dessus pour voir le nom de la station.

Cliquer dessus pour voir les observations et prévisions météorologiques.

Pour changer de carte: cliquez sur les boutons verts avec une croix noire pour zoomer, sur le bouton vert avec un tiret pour effectuer un zoom arrière, ou sur les flèches vertes pour les cartes adjacentes.


METAR-TAF: